createdAt,value
2019-01-29T00:02:15.291Z,56.70
2019-01-29T00:04:43.827Z,57.50
2019-01-29T00:07:12.323Z,56.80
2019-01-29T00:09:40.846Z,55.77
2019-01-29T00:12:09.364Z,55.57
2019-01-29T00:14:37.875Z,57.17
2019-01-29T00:17:06.619Z,55.87
2019-01-29T00:19:35.100Z,57.43
2019-01-29T00:22:03.591Z,58.17
2019-01-29T00:24:32.125Z,57.23
2019-01-29T00:27:00.631Z,57.20
2019-01-29T00:29:29.194Z,56.30
2019-01-29T00:31:57.727Z,55.73
2019-01-29T00:34:26.559Z,55.50
2019-01-29T00:36:55.078Z,53.97
2019-01-29T00:39:24.194Z,58.10
2019-01-29T00:41:52.707Z,56.70
2019-01-29T00:44:21.191Z,56.47
2019-01-29T00:46:49.660Z,56.87
2019-01-29T00:49:18.191Z,57.77
2019-01-29T00:51:46.686Z,55.23
2019-01-29T00:54:15.162Z,55.73
2019-01-29T00:56:43.967Z,55.57
2019-01-29T00:59:12.810Z,55.73
2019-01-29T01:01:41.347Z,56.07
2019-01-29T01:04:09.833Z,55.97
2019-01-29T01:06:38.515Z,54.87
2019-01-29T01:09:08.444Z,56.00
2019-01-29T01:11:37.097Z,55.17
2019-01-29T01:14:05.670Z,52.67
2019-01-29T01:16:34.206Z,53.73
2019-01-29T01:19:03.060Z,54.47
2019-01-29T01:21:31.603Z,52.33
2019-01-29T01:24:00.075Z,53.97
2019-01-29T01:26:28.647Z,54.63
2019-01-29T01:28:57.166Z,57.20
2019-01-29T01:31:25.910Z,55.63
2019-01-29T01:33:54.590Z,56.00
2019-01-29T01:36:23.278Z,52.77
2019-01-29T01:38:51.755Z,56.03
2019-01-29T01:41:20.230Z,55.43
2019-01-29T01:43:48.770Z,53.90
2019-01-29T01:46:17.234Z,54.97
2019-01-29T01:48:45.718Z,55.07
2019-01-29T01:51:14.252Z,53.63
2019-01-29T01:53:42.754Z,54.03
2019-01-29T01:56:11.242Z,52.57
2019-01-29T01:58:39.746Z,53.13
2019-01-29T02:01:08.302Z,52.57
2019-01-29T02:03:36.898Z,50.17
2019-01-29T02:06:05.474Z,51.03
2019-01-29T02:08:33.998Z,50.33
2019-01-29T02:11:02.503Z,48.60
2019-01-29T02:13:31.002Z,50.43
2019-01-29T02:15:59.538Z,51.73
2019-01-29T02:18:28.206Z,49.93
2019-01-29T02:20:56.937Z,51.43
2019-01-29T02:23:25.410Z,52.10
2019-01-29T02:25:53.906Z,50.83
2019-01-29T02:28:23.430Z,51.07
2019-01-29T02:30:51.939Z,53.43
2019-01-29T02:33:20.425Z,53.03
2019-01-29T02:35:49.225Z,52.70
2019-01-29T02:38:17.748Z,53.63
2019-01-29T02:40:46.243Z,51.07
2019-01-29T02:43:14.758Z,51.20
2019-01-29T02:45:43.253Z,49.33
2019-01-29T02:48:11.746Z,50.90
2019-01-29T02:50:40.270Z,50.47
2019-01-29T02:53:18.129Z,52.30
2019-01-29T02:55:38.134Z,49.20
2019-01-29T02:58:06.638Z,51.67
2019-01-29T03:00:35.654Z,48.43
2019-01-29T03:03:04.702Z,44.93
2019-01-29T03:05:33.285Z,48.50
2019-01-29T03:08:02.038Z,45.87
2019-01-29T03:10:30.569Z,46.63
2019-01-29T03:12:59.087Z,51.60
2019-01-29T03:15:30.564Z,48.40
2019-01-29T03:17:59.120Z,48.10
2019-01-29T03:20:27.670Z,47.33
2019-01-29T03:25:30.989Z,46.70
2019-01-29T03:27:59.473Z,48.97
2019-01-29T03:30:28.016Z,48.43
2019-01-29T03:32:56.498Z,47.33
2019-01-29T03:35:25.042Z,49.40
2019-01-29T03:37:53.645Z,44.23
2019-01-29T03:40:24.005Z,42.43
2019-01-29T03:42:52.551Z,45.47
2019-01-29T03:45:21.071Z,45.73
2019-01-29T03:47:49.585Z,45.53
2019-01-29T03:50:19.534Z,44.43
2019-01-29T03:52:48.775Z,44.30
2019-01-29T03:55:17.336Z,42.97
2019-01-29T03:57:45.876Z,42.67
2019-01-29T04:00:16.876Z,44.97
2019-01-29T04:02:45.429Z,47.07
2019-01-29T04:05:14.869Z,46.87
2019-01-29T04:07:43.485Z,42.83
2019-01-29T04:10:15.639Z,44.27
2019-01-29T04:12:41.833Z,40.97
2019-01-29T04:15:12.350Z,45.83
2019-01-29T04:17:41.122Z,43.60
2019-01-29T04:20:11.845Z,46.67
2019-01-29T04:22:40.330Z,46.27
2019-01-29T04:25:09.082Z,49.47
2019-01-29T04:27:37.628Z,44.33
2019-01-29T04:30:07.434Z,46.53
2019-01-29T04:32:36.333Z,48.43
2019-01-29T04:35:05.674Z,51.17
2019-01-29T04:37:34.216Z,48.27
2019-01-29T04:40:02.777Z,46.67
2019-01-29T04:42:31.580Z,49.17
2019-01-29T04:45:11.963Z,52.13
2019-01-29T04:47:40.540Z,47.67
2019-01-29T04:50:10.823Z,48.70
2019-01-29T04:52:39.371Z,51.67
2019-01-29T04:55:08.933Z,52.40
2019-01-29T04:57:38.065Z,53.67
2019-01-29T05:00:08.906Z,50.60
2019-01-29T05:02:37.485Z,50.77
2019-01-29T05:05:08.476Z,53.13
2019-01-29T05:07:36.965Z,53.53
2019-01-29T05:10:07.501Z,55.10
2019-01-29T05:12:36.042Z,54.00
2019-01-29T05:15:05.795Z,53.67
2019-01-29T05:17:34.385Z,50.27
2019-01-29T05:20:03.312Z,58.20
2019-01-29T05:22:32.132Z,59.13
2019-01-29T05:25:01.078Z,59.60
2019-01-29T05:31:01.476Z,55.23
2019-01-29T05:33:30.277Z,55.83
2019-01-29T05:35:58.776Z,60.10
2019-01-29T05:38:27.259Z,53.97
2019-01-29T05:40:56.056Z,59.90
2019-01-29T05:43:24.556Z,54.57
2019-01-29T05:45:53.816Z,54.93
2019-01-29T05:48:22.589Z,55.97
2019-01-29T05:50:51.132Z,53.00
2019-01-29T05:53:19.632Z,56.13
2019-01-29T05:55:48.111Z,55.87
2019-01-29T05:58:16.616Z,53.03
2019-01-29T06:00:45.152Z,53.33
2019-01-29T06:03:13.676Z,52.75
2019-01-29T06:05:42.148Z,60.50
2019-01-29T06:08:10.648Z,53.70
2019-01-29T06:10:39.163Z,53.13
2019-01-29T06:13:07.720Z,50.17
2019-01-29T06:15:36.235Z,53.67
2019-01-29T06:18:05.288Z,51.60
2019-01-29T06:20:33.836Z,52.27
2019-01-29T06:23:02.318Z,54.63
2019-01-29T06:25:30.933Z,48.70
2019-01-29T06:27:59.473Z,54.07
2019-01-29T06:30:28.035Z,52.53
2019-01-29T06:32:56.548Z,54.77
2019-01-29T06:35:25.110Z,53.87
2019-01-29T06:37:53.891Z,50.13
2019-01-29T06:40:24.307Z,49.60
2019-01-29T06:42:52.898Z,48.20
2019-01-29T06:45:22.015Z,48.30
2019-01-29T06:47:50.963Z,47.70
2019-01-29T06:50:22.175Z,48.08
2019-01-29T06:52:50.787Z,50.43
2019-01-29T06:55:20.403Z,46.90
2019-01-29T06:57:55.218Z,46.53
2019-01-29T07:00:19.815Z,45.93
2019-01-29T07:02:48.459Z,49.33
2019-01-29T07:05:17.340Z,38.13
2019-01-29T07:07:45.823Z,45.87
2019-01-29T07:10:15.567Z,44.50
2019-01-29T07:12:44.091Z,47.47
2019-01-29T07:15:19.447Z,45.90
2019-01-29T07:17:49.299Z,44.07
2019-01-29T07:20:17.811Z,47.93
2019-01-29T07:22:46.588Z,45.80
2019-01-29T07:25:15.091Z,49.90
2019-01-29T07:27:43.555Z,45.20
2019-01-29T07:30:14.135Z,46.97
2019-01-29T07:32:42.911Z,47.17
2019-01-29T07:35:11.479Z,51.07
2019-01-29T07:37:40.271Z,50.13
2019-01-29T07:40:09.455Z,50.77
2019-01-29T07:42:37.927Z,50.83
2019-01-29T07:45:07.031Z,50.37
2019-01-29T07:47:35.532Z,51.40
2019-01-29T07:50:04.863Z,53.23
2019-01-29T07:52:33.419Z,53.03
2019-01-29T07:55:02.652Z,53.33
2019-01-29T07:57:31.135Z,54.07
2019-01-29T07:59:59.704Z,54.33
2019-01-29T08:02:28.230Z,53.57
2019-01-29T08:04:57.074Z,54.47
2019-01-29T08:07:25.635Z,51.20
2019-01-29T08:09:54.166Z,50.67
2019-01-29T08:12:22.642Z,53.80
2019-01-29T08:14:51.198Z,46.37
2019-01-29T08:17:19.707Z,51.43
2019-01-29T08:19:48.532Z,51.73
2019-01-29T08:22:17.074Z,51.90
2019-01-29T08:24:51.827Z,50.13
2019-01-29T08:27:14.115Z,48.33
2019-01-29T08:29:42.747Z,52.00
2019-01-29T08:32:11.391Z,49.60
2019-01-29T08:34:39.906Z,48.87
2019-01-29T08:37:08.671Z,52.37
2019-01-29T08:39:37.195Z,51.07
2019-01-29T08:42:05.731Z,52.30
2019-01-29T08:44:34.535Z,51.07
2019-01-29T08:47:04.725Z,49.60
2019-01-29T08:49:33.200Z,47.60
2019-01-29T08:52:01.654Z,49.30
2019-01-29T08:54:30.206Z,49.50
2019-01-29T08:56:58.990Z,48.40
2019-01-29T08:59:27.510Z,45.50
2019-01-29T09:01:56.319Z,47.13
2019-01-29T09:04:24.821Z,48.00
2019-01-29T09:06:53.554Z,47.47
2019-01-29T09:09:22.098Z,50.75
2019-01-29T09:11:50.611Z,50.23
2019-01-29T09:14:19.198Z,48.63
2019-01-29T09:16:47.714Z,46.53
2019-01-29T09:19:16.373Z,50.57
2019-01-29T09:21:44.894Z,50.67
2019-01-29T09:24:13.386Z,50.00
2019-01-29T09:26:41.970Z,51.90
2019-01-29T09:29:17.670Z,49.33
2019-01-29T09:31:39.212Z,52.17
2019-01-29T09:34:08.226Z,50.63
2019-01-29T09:36:37.430Z,50.50
2019-01-29T09:39:09.451Z,51.00
2019-01-29T09:41:37.929Z,48.57
2019-01-29T09:44:06.416Z,49.97
2019-01-29T09:46:34.955Z,50.93
2019-01-29T09:49:03.635Z,52.83
2019-01-29T09:51:32.118Z,53.67
2019-01-29T09:54:00.626Z,54.70
2019-01-29T09:56:29.134Z,54.40
2019-01-29T09:58:57.838Z,54.00
2019-01-29T10:01:26.360Z,53.40
2019-01-29T10:03:54.874Z,52.97
2019-01-29T10:06:23.406Z,55.03
2019-01-29T10:08:51.918Z,53.00
2019-01-29T10:11:20.421Z,52.48
2019-01-29T10:13:49.406Z,55.70
2019-01-29T10:16:17.873Z,53.50
2019-01-29T10:18:46.348Z,58.27
2019-01-29T10:21:14.858Z,58.77
2019-01-29T10:23:43.601Z,58.70
2019-01-29T10:26:12.089Z,58.47
2019-01-29T10:28:40.582Z,57.03
2019-01-29T10:31:09.098Z,58.77
2019-01-29T10:33:37.919Z,59.07
2019-01-29T10:36:06.512Z,56.27
2019-01-29T10:38:35.021Z,59.40
2019-01-29T10:41:03.562Z,59.03
2019-01-29T10:43:32.086Z,58.20
2019-01-29T10:46:00.613Z,58.70
2019-01-29T10:48:29.199Z,60.07
2019-01-29T10:50:57.718Z,56.53
2019-01-29T10:53:26.257Z,61.80
2019-01-29T10:55:54.796Z,58.83
2019-01-29T10:58:23.709Z,60.23
2019-01-29T11:00:52.418Z,55.90
2019-01-29T11:03:21.197Z,58.20
2019-01-29T11:05:49.689Z,58.47
2019-01-29T11:08:18.281Z,56.90
2019-01-29T11:10:46.785Z,62.13
2019-01-29T11:13:15.373Z,56.77
2019-01-29T11:15:44.283Z,59.73
2019-01-29T11:18:15.610Z,59.60
2019-01-29T11:20:44.191Z,63.90
2019-01-29T11:23:12.714Z,60.80
2019-01-29T11:25:41.256Z,62.93
2019-01-29T11:28:09.915Z,60.20
2019-01-29T11:30:39.048Z,55.40
2019-01-29T11:33:08.393Z,60.63
2019-01-29T11:35:36.935Z,57.03
2019-01-29T11:38:05.531Z,57.10
2019-01-29T11:40:34.116Z,64.17
2019-01-29T11:43:02.713Z,63.57
2019-01-29T11:45:38.023Z,61.73
2019-01-29T11:48:06.564Z,60.60
2019-01-29T11:50:35.155Z,61.10
2019-01-29T11:53:03.845Z,64.53
2019-01-29T11:55:32.555Z,62.60
2019-01-29T11:58:01.410Z,65.13
2019-01-29T12:00:34.810Z,64.67
2019-01-29T12:03:03.436Z,66.47
2019-01-29T12:05:32.299Z,65.33
2019-01-29T12:08:01.105Z,62.53
2019-01-29T12:10:29.647Z,65.57
2019-01-29T12:12:58.187Z,62.57
2019-01-29T12:15:26.730Z,61.77
2019-01-29T12:17:55.274Z,58.27
2019-01-29T12:20:24.326Z,67.53
2019-01-29T12:22:53.070Z,65.67
2019-01-29T12:25:21.614Z,63.23
2019-01-29T12:27:50.150Z,66.60
2019-01-29T12:30:19.914Z,63.98
2019-01-29T12:32:48.783Z,61.90
2019-01-29T12:35:17.313Z,61.60
2019-01-29T12:37:45.819Z,63.30
2019-01-29T12:40:14.687Z,64.27
2019-01-29T12:42:43.260Z,65.83
2019-01-29T12:45:12.145Z,68.67
2019-01-29T12:47:40.943Z,72.90
2019-01-29T12:50:12.207Z,66.77
2019-01-29T12:52:45.379Z,66.95
2019-01-29T12:55:13.899Z,65.93
2019-01-29T12:57:42.407Z,65.93
2019-01-29T13:00:13.323Z,67.43
2019-01-29T13:02:41.815Z,63.77
2019-01-29T13:05:13.007Z,66.37
2019-01-29T13:07:41.519Z,68.53
2019-01-29T13:10:14.487Z,69.47
2019-01-29T13:12:43.331Z,66.57
2019-01-29T13:15:13.171Z,66.67
2019-01-29T13:17:41.707Z,65.60
2019-01-29T13:20:10.651Z,62.43
2019-01-29T13:22:39.819Z,67.17
2019-01-29T13:25:09.134Z,57.77
2019-01-29T13:27:37.640Z,60.70
2019-01-29T13:30:09.835Z,56.93
2019-01-29T13:32:38.306Z,58.30
2019-01-29T13:35:07.191Z,56.25
2019-01-29T13:37:35.721Z,58.37
2019-01-29T13:40:06.327Z,55.77
2019-01-29T13:42:34.845Z,52.10
2019-01-29T13:45:03.432Z,53.10
2019-01-29T13:47:32.041Z,50.33
2019-01-29T13:50:00.792Z,55.23
2019-01-29T13:52:29.383Z,50.10
2019-01-29T13:54:57.966Z,56.13
2019-01-29T13:57:26.499Z,49.70
2019-01-29T13:59:55.034Z,51.57
2019-01-29T14:02:23.518Z,49.07
2019-01-29T14:04:52.123Z,53.23
2019-01-29T14:07:20.673Z,52.13
2019-01-29T14:09:49.166Z,51.43
2019-01-29T14:12:18.020Z,51.07
2019-01-29T14:14:46.947Z,48.73
2019-01-29T14:17:15.632Z,50.30
2019-01-29T14:19:44.135Z,50.20
2019-01-29T14:22:12.687Z,50.77
2019-01-29T14:24:41.261Z,52.93
2019-01-29T14:27:09.880Z,52.97
2019-01-29T14:29:39.840Z,44.83
2019-01-29T14:32:08.352Z,48.63
2019-01-29T14:34:36.849Z,42.57
2019-01-29T14:37:05.428Z,42.27
2019-01-29T14:40:16.308Z,46.43
2019-01-29T14:42:46.616Z,43.33
2019-01-29T14:45:19.865Z,41.50
2019-01-29T14:47:48.440Z,42.80
2019-01-29T14:50:17.040Z,39.23
2019-01-29T14:52:47.070Z,43.40
2019-01-29T14:55:14.151Z,41.53
2019-01-29T14:57:42.652Z,42.03
2019-01-29T15:00:22.036Z,37.17
2019-01-29T15:02:50.536Z,35.63
2019-01-29T15:05:19.037Z,34.37
2019-01-29T15:07:47.592Z,29.83
2019-01-29T15:10:17.136Z,28.07
2019-01-29T15:12:45.700Z,28.40
2019-01-29T15:15:14.573Z,27.07
2019-01-29T15:17:47.671Z,26.73
2019-01-29T15:20:16.407Z,23.77
2019-01-29T15:22:44.983Z,22.30
2019-01-29T15:25:13.572Z,22.93
2019-01-29T15:27:42.160Z,21.80
2019-01-29T15:30:16.584Z,21.17
2019-01-29T15:32:45.076Z,17.83
2019-01-29T15:35:13.672Z,18.03
2019-01-29T15:37:42.201Z,17.87
2019-01-29T15:40:12.851Z,18.23
2019-01-29T15:42:41.728Z,16.33
2019-01-29T15:45:13.751Z,15.23
2019-01-29T15:47:42.289Z,14.50
2019-01-29T15:50:13.224Z,14.17
2019-01-29T15:52:48.503Z,14.53
2019-01-29T15:55:14.515Z,15.47
2019-01-29T15:57:43.423Z,16.43
2019-01-29T16:00:15.736Z,17.07
2019-01-29T16:02:44.336Z,18.40
2019-01-29T16:05:15.799Z,18.87
2019-01-29T16:07:45.103Z,18.73
2019-01-29T16:10:16.099Z,19.70
2019-01-29T16:12:45.172Z,18.40
2019-01-29T16:15:15.016Z,17.00
2019-01-29T16:17:43.767Z,15.23
2019-01-29T16:20:14.511Z,14.70
2019-01-29T16:22:43.022Z,14.73
2019-01-29T16:25:12.522Z,13.77
2019-01-29T16:27:41.014Z,14.57
2019-01-29T16:30:13.394Z,13.27
2019-01-29T16:32:41.892Z,12.33
2019-01-29T16:35:12.646Z,12.00
2019-01-29T16:37:43.007Z,12.37
2019-01-29T16:40:11.339Z,11.10
2019-01-29T16:42:39.822Z,11.53
2019-01-29T16:45:09.207Z,11.93
2019-01-29T16:47:37.763Z,16.57
2019-01-29T16:50:06.439Z,14.37
2019-01-29T16:52:34.919Z,15.53
2019-01-29T16:55:03.455Z,12.77
2019-01-29T16:57:32.143Z,14.63
2019-01-29T17:00:00.535Z,11.97
2019-01-29T17:02:29.007Z,10.10
2019-01-29T17:04:57.756Z,12.60
2019-01-29T17:07:26.326Z,11.90
2019-01-29T17:09:54.846Z,9.83
2019-01-29T17:12:24.446Z,11.37
2019-01-29T17:14:53.801Z,12.17
2019-01-29T17:17:23.972Z,13.78
2019-01-29T17:19:53.607Z,13.53
2019-01-29T17:22:22.742Z,12.63
2019-01-29T17:24:51.581Z,13.47
2019-01-29T17:27:20.585Z,10.10
2019-01-29T17:29:50.977Z,10.33
2019-01-29T17:32:20.836Z,15.15
2019-01-29T17:34:49.640Z,11.47
2019-01-29T17:37:19.815Z,12.13
2019-01-29T17:39:48.665Z,12.73
2019-01-29T17:42:19.014Z,14.67
2019-01-29T17:44:48.005Z,15.37
2019-01-29T17:47:16.604Z,15.98
2019-01-29T17:49:45.474Z,14.43
2019-01-29T17:52:14.386Z,14.00
2019-01-29T17:54:43.280Z,13.17
2019-01-29T17:57:11.790Z,13.53
2019-01-29T17:59:40.351Z,14.33
2019-01-29T18:02:08.922Z,16.33
2019-01-29T18:04:37.874Z,12.27
2019-01-29T18:07:06.874Z,17.07
2019-01-29T18:09:35.430Z,10.17
2019-01-29T18:12:23.710Z,12.53
2019-01-29T18:14:53.542Z,13.43
2019-01-29T18:17:23.814Z,11.90
2019-01-29T18:19:52.514Z,11.90
2019-01-29T18:22:21.643Z,13.22
2019-01-29T18:24:50.646Z,15.10
2019-01-29T18:27:19.154Z,15.73
2019-01-29T18:29:47.714Z,16.40
2019-01-29T18:32:16.202Z,15.50
2019-01-29T18:34:44.707Z,12.70
2019-01-29T18:37:13.191Z,13.83
2019-01-29T18:39:41.693Z,11.60
2019-01-29T18:42:11.467Z,9.70
2019-01-29T18:44:39.938Z,9.90
2019-01-29T18:47:08.446Z,9.30
2019-01-29T18:49:36.986Z,8.73
2019-01-29T18:52:05.502Z,9.13
2019-01-29T18:54:34.238Z,9.10
2019-01-29T18:57:02.737Z,8.73
2019-01-29T18:59:31.239Z,9.47
2019-01-29T19:01:59.806Z,9.87
2019-01-29T19:04:28.274Z,10.10
2019-01-29T19:06:56.809Z,11.33
2019-01-29T19:09:25.333Z,10.40
2019-01-29T19:11:53.909Z,11.53
2019-01-29T19:14:22.442Z,11.50
2019-01-29T19:16:50.967Z,13.03
2019-01-29T19:19:19.465Z,10.10
2019-01-29T19:21:47.957Z,10.10
2019-01-29T19:24:16.741Z,10.93
2019-01-29T19:26:45.234Z,11.63
2019-01-29T19:29:13.842Z,11.30
2019-01-29T19:31:42.417Z,9.50
2019-01-29T19:34:11.179Z,9.27
2019-01-29T19:36:39.433Z,9.40
2019-01-29T19:39:09.193Z,9.37
2019-01-29T19:41:37.677Z,8.77
2019-01-29T19:44:06.217Z,9.10
2019-01-29T19:46:34.785Z,9.30
2019-01-29T19:49:03.318Z,9.23
2019-01-29T19:51:32.137Z,8.47
2019-01-29T19:54:00.629Z,8.43
2019-01-29T19:57:32.442Z,8.83
2019-01-29T20:00:00.991Z,10.10
2019-01-29T20:02:29.505Z,10.57
2019-01-29T20:04:58.029Z,12.53
2019-01-29T20:07:26.553Z,11.37
2019-01-29T20:09:55.029Z,11.50
2019-01-29T20:12:23.630Z,12.30
2019-01-29T20:14:52.145Z,10.80
2019-01-29T20:17:20.657Z,10.53
2019-01-29T20:19:49.189Z,11.70
2019-01-29T20:22:17.713Z,11.23
2019-01-29T20:24:46.281Z,10.77
2019-01-29T20:27:15.081Z,10.63
2019-01-29T20:29:43.642Z,10.90
2019-01-29T20:32:12.537Z,8.23
2019-01-29T20:34:41.085Z,10.50
2019-01-29T20:37:09.953Z,10.77
2019-01-29T20:39:38.537Z,9.40
2019-01-29T20:42:07.097Z,8.37
2019-01-29T20:44:35.657Z,7.87
2019-01-29T20:47:05.147Z,8.33
2019-01-29T20:49:33.668Z,7.53
2019-01-29T20:52:02.232Z,7.30
2019-01-29T20:54:31.100Z,8.60
2019-01-29T20:56:59.593Z,8.60
2019-01-29T20:59:28.172Z,7.67
2019-01-29T21:01:56.676Z,7.60
2019-01-29T21:04:25.500Z,7.83
2019-01-29T21:06:53.985Z,7.50
2019-01-29T21:09:23.026Z,8.77
2019-01-29T21:11:51.549Z,10.37
2019-01-29T21:14:20.029Z,9.73
2019-01-29T21:16:49.081Z,13.13
2019-01-29T21:19:17.929Z,13.93
2019-01-29T21:21:46.461Z,14.47
2019-01-29T21:24:15.037Z,13.40
2019-01-29T21:27:03.045Z,14.57
2019-01-29T21:29:33.793Z,12.63
2019-01-29T21:32:02.329Z,13.57
2019-01-29T21:34:31.173Z,14.47
2019-01-29T21:36:59.697Z,13.33
2019-01-29T21:39:28.521Z,14.73
2019-01-29T21:41:57.225Z,14.47
2019-01-29T21:44:26.061Z,13.87
2019-01-29T21:46:54.600Z,13.80
2019-01-29T21:49:23.084Z,12.73
2019-01-29T21:51:51.665Z,12.30
2019-01-29T21:54:20.209Z,14.25
2019-01-29T21:56:49.879Z,14.83
2019-01-29T21:59:17.417Z,14.03
2019-01-29T22:01:47.381Z,16.57
2019-01-29T22:04:15.997Z,16.70
2019-01-29T22:06:44.500Z,18.57
2019-01-29T22:09:13.053Z,17.03
2019-01-29T22:11:41.768Z,15.80
2019-01-29T22:14:10.281Z,18.23
2019-01-29T22:16:38.885Z,16.63
2019-01-29T22:19:08.030Z,14.33
2019-01-29T22:21:36.592Z,15.63
2019-01-29T22:24:05.212Z,13.20
2019-01-29T22:26:34.089Z,12.40
2019-01-29T22:29:02.576Z,11.77
2019-01-29T22:31:31.169Z,11.20
2019-01-29T22:33:59.940Z,11.83
2019-01-29T22:36:28.484Z,11.70
2019-01-29T22:38:57.057Z,11.80
2019-01-29T22:41:25.604Z,12.23
2019-01-29T22:43:54.109Z,11.77
2019-01-29T22:46:22.614Z,12.70
2019-01-29T22:48:51.157Z,11.47
2019-01-29T22:51:19.971Z,13.70
2019-01-29T22:53:48.896Z,14.87
2019-01-29T22:56:17.460Z,18.47
2019-01-29T22:58:46.149Z,16.73
2019-01-29T23:01:29.039Z,16.60
2019-01-29T23:04:10.064Z,17.10
2019-01-29T23:06:51.465Z,16.43
2019-01-29T23:09:20.144Z,16.60
2019-01-29T23:11:48.665Z,15.63
2019-01-29T23:14:17.292Z,17.05
2019-01-29T23:16:45.816Z,14.40
2019-01-29T23:19:14.404Z,16.50
2019-01-29T23:21:42.920Z,16.43
2019-01-29T23:24:11.792Z,17.00
2019-01-29T23:26:40.484Z,17.37
2019-01-29T23:29:09.076Z,17.87
2019-01-29T23:31:38.172Z,18.03
2019-01-29T23:34:07.918Z,18.40
2019-01-29T23:36:37.645Z,20.33
2019-01-29T23:39:08.056Z,18.17
2019-01-29T23:41:37.204Z,18.83
2019-01-29T23:44:05.769Z,18.37
2019-01-29T23:46:34.272Z,19.23
2019-01-29T23:49:03.109Z,19.10
2019-01-29T23:51:31.669Z,18.67
2019-01-29T23:54:00.788Z,16.60
2019-01-29T23:56:30.216Z,15.60
2019-01-29T23:58:58.748Z,15.00
